Weather reports worldwide

Advertisment
Mont Aigoual, France (7560): temperature & dewpoint: 09.12.2018 07:00:00 - 15.12.2018 07:00:00 (CET)Mont Aigoual, France (7560): wind speed & gusts: 09.12.2018 07:00:00 - 15.12.2018 07:00:00 (CET)Mont Aigoual, France (7560): wind direction: 09.12.2018 07:00:00 - 15.12.2018 07:00:00 (CET)Mont Aigoual, France (7560): visibility: 09.12.2018 07:00:00 - 15.12.2018 07:00:00 (CET)Mont Aigoual, France (7560): precipitation: 09.12.2018 07:00:00 - 15.12.2018 07:00:00 (CET)
Date & Time tt [°C] td [°C] ff [km/h] ff [kn] fx [km/h] fx [kn] dd vv [km] rr [mm]
15.12.2018 07:00:00 - - - - - - - - -
15.12.2018 06:00:00 -4,6 -17,1 67 36 91 49 NNW 3,9 0,0
15.12.2018 05:00:00 -2,3 -19,3 66 35 89 48 NNW 2,2 0,0
15.12.2018 04:00:00 -3,0 -17,8 69 37 93 50 NNW 1,7 0,2
15.12.2018 03:00:00 -2,4 -17,7 70 38 91 49 NNW 1,0 0,0
15.12.2018 02:00:00 -2,9 -17,3 72 39 96 52 NNW 0,5 0,0
15.12.2018 01:00:00 -2,9 -14,9 74 40 105 57 NNW 0,7 0,0
15.12.2018 00:00:00 -4,3 -13,2 73 40 99 54 NNW 1,3 0,0
14.12.2018 23:00:00 -4,3 -11,8 65 35 90 49 NNW 4,8 0,0
14.12.2018 22:00:00 -4,8 -8,4 69 38 90 49 NNW 4,5 0,0
14.12.2018 21:00:00 -6,1 -7,9 66 36 91 49 NNW 19 0,0
14.12.2018 20:00:00 -6,6 -7,8 71 38 97 52 NNW 4,8 0,0
14.12.2018 19:00:00 -5,9 -6,6 73 40 97 53 NNW 2,4 0,0
14.12.2018 18:00:00 -5,1 -5,6 71 38 102 55 NW 0,4 0,0
14.12.2018 17:00:00 -4,2 -4,5 76 41 100 54 NW 0,1 0,0
14.12.2018 16:00:00 -3,4 -3,7 75 40 94 51 NW 0,2 0,0
14.12.2018 15:00:00 -3,2 -3,3 76 41 93 50 NW 0,2 0,0
14.12.2018 14:00:00 -3,2 -3,3 60 33 106 57 NW 0,4 0,0
14.12.2018 13:00:00 -3,0 -3,1 72 39 105 57 NW 0,3 0,0
14.12.2018 12:00:00 -2,6 -2,7 58 31 89 48 NW 0,1 0,0
14.12.2018 11:00:00 -2,6 -2,7 61 33 107 58 NNW 0,1 0,0
14.12.2018 10:00:00 -2,6 -2,6 55 30 87 47 NNW 0,1 0,0
14.12.2018 09:00:00 -2,5 -2,5 44 24 69 38 NNW 0,1 0,0
14.12.2018 08:00:00 -2,1 -2,1 40 21 76 41 N 0,1 0,0
14.12.2018 07:00:00 -1,7 -1,7 48 26 63 34 NNW 0,1 0,0
14.12.2018 06:00:00 -1,8 -1,8 38 21 59 32 NNW 0,1 0,0
14.12.2018 05:00:00 -1,8 -1,8 36 19 51 28 NW 0,1 0,0
14.12.2018 04:00:00 -1,4 -1,4 28 15 39 21 WNW 0,2 0,0
14.12.2018 03:00:00 -1,2 -1,2 24 13 38 20 WNW 0,1 0,0
14.12.2018 02:00:00 -1,5 -1,5 24 13 32 17 WNW 0,4 0,2
14.12.2018 01:00:00 -1,6 -1,6 23 13 27 15 NW 1,4 0,0
14.12.2018 00:00:00 -1,7 -1,7 6 3 12 6 WNW 4,1 0,2
13.12.2018 23:00:00 -1,6 -1,6 7 4 26 14 WSW 0,1 0,4
13.12.2018 22:00:00 -1,6 -1,6 22 12 69 37 S 0,1 0,8
13.12.2018 21:00:00 -1,8 -1,8 25 13 53 28 S 0,1 0,4
13.12.2018 20:00:00 -1,6 -1,6 28 15 44 24 S 0,1 1,2
13.12.2018 19:00:00 -1,7 -1,7 31 17 45 24 S 0,1 1,1
13.12.2018 18:00:00 -1,8 -1,8 32 17 70 38 S 0,1 0,8
13.12.2018 17:00:00 -1,9 -1,9 36 19 49 27 SSE 0,1 1,0
13.12.2018 16:00:00 -1,6 -1,6 28 15 60 32 SSE 0,1 1,8
13.12.2018 15:00:00 -1,4 -1,4 31 17 53 29 S 0,1 2,0
13.12.2018 14:00:00 -1,0 -1,0 40 22 55 30 S 0,1 1,2
13.12.2018 13:00:00 -0,8 -0,8 40 21 66 36 S 0,1 0,2
13.12.2018 12:00:00 -1,7 -1,7 46 25 69 37 S 0,1 0,0
13.12.2018 11:00:00 -2,1 -2,1 36 19 82 44 S 0,1 0,0
13.12.2018 10:00:00 -2,3 -2,3 40 21 75 40 S 0,1 0,0
13.12.2018 09:00:00 -2,2 -2,2 35 19 50 27 S 0,1 0,0
13.12.2018 08:00:00 -2,6 -2,9 26 14 39 21 S 0,1 0,0
13.12.2018 07:00:00 -2,0 -2,4 27 14 36 19 S 0,3 0,0
13.12.2018 06:00:00 -2,4 -5,1 25 13 33 18 S 20 0,0
13.12.2018 05:00:00 -2,9 -4,8 24 13 30 16 S 20 0,0
13.12.2018 04:00:00 -2,8 -4,8 16 8 18 10 S 20 0,0
13.12.2018 03:00:00 -2,2 -5,0 11 6 19 10 SSE 20 0,0
13.12.2018 02:00:00 -1,9 -5,9 5 3 17 9 S 20 0,0
13.12.2018 01:00:00 -2,3 -4,6 13 7 16 8 S 20 0,0
13.12.2018 00:00:00 -2,6 -4,8 11 6 30 16 NE 20 0,0
12.12.2018 23:00:00 -3,0 -5,2 26 14 67 36 N 20 0,0
12.12.2018 22:00:00 -3,5 -3,6 51 27 75 41 NW 0,1 0,0
12.12.2018 21:00:00 -3,4 -3,4 50 27 88 48 NW 0,1 0,0
12.12.2018 20:00:00 -3,3 -3,4 42 23 57 31 NW - 0,0
12.12.2018 19:00:00 -2,1 -4,3 40 21 54 29 NW 20 0,0
12.12.2018 18:00:00 -3,0 -5,2 37 20 49 26 NW 20 0,0
12.12.2018 17:00:00 -0,1 -1,2 24 13 61 33 NW 20 0,0
12.12.2018 16:00:00 -0,7 -1,7 51 27 58 31 NNW 4,3 0,0
12.12.2018 15:00:00 0,2 -9,3 38 21 54 29 NW 20 0,0
12.12.2018 14:00:00 1,4 -5,5 37 20 63 34 NW 20 0,0
12.12.2018 13:00:00 1,0 -9,9 39 21 54 29 NW 20 0,0
12.12.2018 12:00:00 0,8 -9,0 37 20 58 31 NNW 20 0,0
12.12.2018 11:00:00 0,6 -10,0 39 21 68 37 NNW 20 0,0
12.12.2018 10:00:00 0,1 -9,9 50 27 76 41 NNW 20 0,0
12.12.2018 09:00:00 0,4 -9,9 54 29 78 42 NNW 20 0,0
12.12.2018 08:00:00 -1,2 -8,0 57 31 74 40 NW 20 0,0
12.12.2018 07:00:00 -1,0 -9,9 49 27 69 37 NW 20 0,0
12.12.2018 06:00:00 -0,8 -11,6 53 28 70 38 NNW 20 0,0
12.12.2018 05:00:00 -1,4 -9,3 53 28 65 35 NW 20 0,0
12.12.2018 04:00:00 -0,6 -15,7 46 25 57 31 NW 20 0,0
12.12.2018 03:00:00 0,2 -18,5 37 20 49 26 NNW 20 0,0
12.12.2018 02:00:00 0,8 -19,1 32 18 36 19 NW 20 0,0
12.12.2018 01:00:00 1,3 -19,9 23 13 29 16 NNW 20 0,0
12.12.2018 00:00:00 1,4 -20,4 23 12 29 16 N 20 0,0
11.12.2018 23:00:00 0,8 -18,6 27 14 34 18 N 20 0,0
11.12.2018 22:00:00 0,3 -17,0 30 16 34 18 N 20 0,0
11.12.2018 21:00:00 0,3 -16,1 25 13 29 16 N 20 0,0
11.12.2018 20:00:00 -0,2 -14,2 22 12 24 13 N 20 0,0
11.12.2018 19:00:00 0,2 -11,5 18 10 24 13 N 20 0,0
11.12.2018 18:00:00 0,2 -9,3 24 13 27 15 N 20 0,0
11.12.2018 17:00:00 0,4 -7,6 16 9 22 12 N 20 0,0
11.12.2018 16:00:00 1,0 -7,0 9 5 15 8 N 20 0,0
11.12.2018 15:00:00 1,2 -6,4 7 4 17 9 N 20 0,0
11.12.2018 14:00:00 0,6 -5,6 10 5 19 10 N 20 0,0
11.12.2018 13:00:00 0,4 -7,4 11 6 29 15 N 20 0,0
11.12.2018 12:00:00 0,2 -7,3 14 7 31 17 NNE 20 0,0
11.12.2018 11:00:00 -0,8 -7,6 19 10 36 19 NNE 20 0,0
11.12.2018 10:00:00 -1,2 -6,6 21 11 57 31 N 20 0,0
11.12.2018 09:00:00 -1,7 -7,8 35 19 68 37 N 20 0,0
11.12.2018 08:00:00 -2,9 -6,9 43 23 72 39 N 20 0,0
11.12.2018 07:00:00 -3,2 -6,2 53 29 75 41 N 20 0,0
11.12.2018 06:00:00 -3,5 -5,7 56 31 80 43 N 20 0,0
11.12.2018 05:00:00 -3,8 -5,1 57 31 88 48 N 20 0,0
11.12.2018 04:00:00 -3,8 -4,5 66 36 86 46 N 20 0,0
11.12.2018 03:00:00 -3,6 -4,1 64 35 88 47 N 20 0,0
11.12.2018 02:00:00 -3,8 -4,3 67 36 91 49 NNW 20 0,0
11.12.2018 01:00:00 -3,9 -4,2 69 37 104 56 NNW 1,0 0,0
11.12.2018 00:00:00 -3,6 -4,4 72 39 107 58 NNW 20 0,0
10.12.2018 23:00:00 -3,7 -4,0 73 39 105 57 N 19 0,0
10.12.2018 22:00:00 -3,4 -3,7 74 40 109 59 N 20 0,0
10.12.2018 21:00:00 -3,0 -3,1 82 45 114 62 N 14 0,0
10.12.2018 20:00:00 -2,7 -2,8 83 45 117 63 N 0,5 0,0
10.12.2018 19:00:00 -2,4 -2,4 74 40 118 64 N 0,9 0,0
10.12.2018 18:00:00 -2,1 -2,1 66 36 107 58 N 0,3 0,0
10.12.2018 17:00:00 -1,8 -1,8 72 39 108 59 N 1,4 0,0
10.12.2018 16:00:00 -1,7 -1,7 72 39 106 58 N 12 0,0
10.12.2018 15:00:00 -1,7 -1,7 72 39 119 65 N 11 0,0
10.12.2018 14:00:00 -1,5 -1,5 77 42 119 64 NNW 0,4 0,0
10.12.2018 13:00:00 -1,6 -1,6 78 42 115 62 N 0,7 0,2
10.12.2018 12:00:00 -1,6 -1,6 70 38 113 61 N 0,3 0,0
10.12.2018 11:00:00 -1,7 -1,7 62 34 106 57 N 0,1 0,0
10.12.2018 10:00:00 -1,5 -1,5 61 33 122 66 N 0,2 0,2
10.12.2018 09:00:00 -1,4 -1,4 69 38 121 66 NNW 0,1 0,2
10.12.2018 08:00:00 -1,4 -1,4 67 36 106 57 N 0,1 0,0
10.12.2018 07:00:00 -1,6 -1,6 59 32 108 59 NNW 0,1 0,0
10.12.2018 06:00:00 -1,6 -1,6 77 41 115 62 NNW 0,1 0,0
10.12.2018 05:00:00 -1,2 -1,2 65 35 123 66 NNW 0,1 0,0
10.12.2018 04:00:00 -1,3 -1,3 76 41 122 66 NNW 0,1 0,0
10.12.2018 03:00:00 -1,1 -1,1 81 44 121 65 NNW 0,1 0,0
10.12.2018 02:00:00 -0,9 -0,9 74 40 139 75 NW 0,1 0,0
10.12.2018 01:00:00 -0,8 -0,8 86 47 123 66 NW 0,1 0,0
10.12.2018 00:00:00 -0,6 -0,6 74 40 124 67 NW 0,1 0,4
09.12.2018 23:00:00 -0,8 -0,8 62 33 96 52 NNW 0,1 0,4
09.12.2018 22:00:00 -0,5 -0,5 66 36 99 53 NW 0,1 0,6
09.12.2018 21:00:00 -0,3 -0,3 55 30 119 64 NNW 0,1 0,6
09.12.2018 20:00:00 -0,2 -0,2 74 40 125 68 NW 0,1 0,0
09.12.2018 19:00:00 -0,3 -0,3 87 47 129 70 NW 0,1 0,0
09.12.2018 18:00:00 -0,4 -0,4 80 43 141 76 NW 0,1 0,8
09.12.2018 17:00:00 0,2 0,2 79 43 126 68 NW 0,2 0,4
09.12.2018 16:00:00 -0,1 -0,1 74 40 126 68 NW 0,1 0,0
09.12.2018 15:00:00 0,5 0,5 74 40 128 69 NW 0,1 0,4
09.12.2018 14:00:00 1,0 1,0 80 43 134 72 NW 1,4 0,0
09.12.2018 13:00:00 1,6 1,6 81 44 150 81 NW 15 0,0
09.12.2018 12:00:00 1,5 1,5 102 55 147 80 WNW 0,2 0,0
09.12.2018 11:00:00 1,5 1,5 96 52 139 75 WNW 0,1 0,2
09.12.2018 10:00:00 1,4 1,4 99 54 141 76 NW 0,2 0,0
09.12.2018 09:00:00 1,1 1,1 95 52 136 73 NW 0,1 0,6
09.12.2018 08:00:00 2,3 2,3 90 49 137 74 NW 0,1 0,6
09.12.2018 07:00:00 2,3 2,3 94 51 146 79 NW 0,1 0,0

tt = temperature
td = dewpoint
ff = wind speed
fx = gusts
dd = wind direction
vv = visibility
rr = precipitation

Next stations